Time;durP1;ratioP1;P1;durP2;ratioP2;P2;SDS_P1;SDS_P2;PMS_P1;PMS_P2;Temp;Humidity;BMP_temperature;BMP_pressure;BME280_temperature;BME280_humidity;BME280_pressure;Samples;Min_cycle;Max_cycle;Signal;HPM_P1;HPM_P2
2022/01/28 00:02:06;;;;;;;13.60;6.00;;;4.30;99.90;;;;;;4379853;32;20193;-66
2022/01/28 00:04:58;;;;;;;11.67;5.70;;;4.20;99.90;;;;;;4380714;32;20132;-65
2022/01/28 00:07:41;;;;;;;11.30;5.40;;;4.30;99.90;;;;;;4379836;32;20124;-65
2022/01/28 00:13:21;;;;;;;10.43;5.77;;;4.20;99.90;;;;;;4347791;33;20561;-65
2022/01/28 00:39:38;;;;;;;7.97;4.30;;;4.30;99.90;;;;;;4349563;33;20544;-65
2022/01/28 00:42:09;;;;;;;8.83;4.20;;;4.30;99.90;;;;;;4349551;33;20182;-65
2022/01/28 00:44:50;;;;;;;8.50;3.97;;;4.30;99.90;;;;;;4361950;32;20542;-65
2022/01/28 00:47:44;;;;;;;8.20;3.30;;;4.30;99.90;;;;;;4349495;33;20188;-65
2022/01/28 00:50:25;;;;;;;5.70;3.20;;;4.30;99.90;;;;;;4358930;32;20221;-65
2022/01/28 00:52:53;;;;;;;8.13;3.53;;;4.30;99.90;;;;;;4366186;32;20215;-65
2022/01/28 00:55:26;;;;;;;5.97;2.90;;;4.30;99.90;;;;;;4365459;32;20561;-65
2022/01/28 00:58:06;;;;;;;6.97;2.97;;;4.30;99.90;;;;;;4365590;32;20231;-65
2022/01/28 01:00:56;;;;;;;9.13;3.20;;;4.20;99.90;;;;;;4374476;32;20209;-65
2022/01/28 01:03:26;;;;;;;7.43;3.33;;;4.20;99.90;;;;;;4365192;32;20167;-65
2022/01/28 01:06:21;;;;;;;8.00;3.00;;;4.20;99.90;;;;;;4356557;32;20172;-65
2022/01/28 01:09:41;;;;;;;7.00;2.50;;;4.10;99.90;;;;;;4365222;32;20168;-65
2022/01/28 01:12:40;;;;;;;4.40;2.70;;;4.10;99.90;;;;;;4303016;33;20208;-65
2022/01/28 01:15:14;;;;;;;7.17;2.60;;;4.00;99.90;;;;;;4316607;33;20239;-65
2022/01/28 01:23:21;;;;;;;6.97;2.30;;;4.00;99.90;;;;;;4319694;33;20478;-65
2022/01/28 01:25:59;;;;;;;5.83;2.60;;;4.00;99.90;;;;;;4332086;33;20196;-65
2022/01/28 01:28:31;;;;;;;4.60;2.40;;;4.00;99.90;;;;;;4331795;33;20141;-65
2022/01/28 01:31:01;;;;;;;6.57;2.60;;;3.90;99.90;;;;;;4332238;33;20177;-65
2022/01/28 01:33:33;;;;;;;6.37;2.40;;;3.90;99.90;;;;;;4330275;33;20248;-65
2022/01/28 01:36:02;;;;;;;5.77;2.10;;;4.00;99.90;;;;;;4334715;33;20165;-65
2022/01/28 01:38:45;;;;;;;5.07;2.00;;;4.00;99.90;;;;;;4357718;33;20140;-65
2022/01/28 01:41:20;;;;;;;4.93;2.00;;;4.00;99.90;;;;;;4346768;33;20156;-65
2022/01/28 01:43:58;;;;;;;4.10;2.10;;;4.00;99.90;;;;;;4356614;33;20258;-65
2022/01/28 01:52:04;;;;;;;6.40;2.30;;;3.90;99.90;;;;;;4319444;33;20234;-65
2022/01/28 01:54:38;;;;;;;5.23;1.90;;;3.90;99.90;;;;;;4319602;33;20184;-65
2022/01/28 01:57:11;;;;;;;5.00;1.83;;;3.90;99.90;;;;;;4318856;33;20227;-65
2022/01/28 01:59:40;;;;;;;4.13;1.90;;;3.90;99.90;;;;;;4331443;33;20207;-65
2022/01/28 02:02:09;;;;;;;6.77;2.43;;;3.80;99.90;;;;;;4318880;33;20238;-65
2022/01/28 02:04:37;;;;;;;6.90;2.00;;;3.80;99.90;;;;;;4331972;33;20464;-65
2022/01/28 02:07:05;;;;;;;3.57;1.80;;;3.90;99.90;;;;;;4319465;33;20189;-65
2022/01/28 02:09:33;;;;;;;6.13;2.10;;;3.90;99.90;;;;;;4319300;33;20212;-65
2022/01/28 02:12:04;;;;;;;4.77;2.03;;;3.90;99.90;;;;;;4331901;33;20145;-66
2022/01/28 02:14:35;;;;;;;5.70;2.03;;;3.90;99.90;;;;;;4319037;33;20232;-65
2022/01/28 02:17:10;;;;;;;5.50;2.23;;;3.80;99.90;;;;;;4320367;33;20161;-65
2022/01/28 02:19:41;;;;;;;4.20;2.30;;;3.80;99.90;;;;;;4322143;33;20169;-65
2022/01/28 02:22:12;;;;;;;4.53;2.00;;;3.80;99.90;;;;;;4335705;33;20550;-65
2022/01/28 02:24:59;;;;;;;;;;;;;;;;;;;;;
2022/01/28 02:27:32;;;;;;;6.50;2.60;;;3.60;99.90;;;;;;4381175;32;20422;-65
2022/01/28 02:30:01;;;;;;;5.47;2.80;;;3.60;99.90;;;;;;4383068;32;20236;-65
2022/01/28 02:33:23;;;;;;;;;;;;;;;;;;;;;
2022/01/28 02:36:16;;;;;;;6.37;3.07;;;3.50;99.90;;;;;;4390192;32;20224;-65
2022/01/28 02:38:43;;;;;;;4.80;3.13;;;3.40;99.90;;;;;;4394533;32;20206;-65
2022/01/28 02:41:11;;;;;;;7.80;2.67;;;3.40;99.90;;;;;;4395223;32;20211;-65
2022/01/28 02:44:11;;;;;;;5.40;2.70;;;3.30;99.90;;;;;;4394599;32;20171;-65
2022/01/28 02:46:53;;;;;;;6.53;2.50;;;3.30;99.90;;;;;;4394540;32;20220;-65
2022/01/28 02:49:28;;;;;;;6.63;2.50;;;3.30;99.90;;;;;;4395075;32;20189;-65
2022/01/28 02:52:23;;;;;;;6.20;2.13;;;3.30;99.90;;;;;;4390760;32;20179;-64
2022/01/28 02:54:53;;;;;;;7.93;2.67;;;3.20;99.90;;;;;;4395603;32;20171;-64
2022/01/28 02:57:26;;;;;;;5.07;1.97;;;3.20;99.90;;;;;;4394144;32;20167;-64
2022/01/28 03:00:00;;;;;;;7.13;2.30;;;3.20;99.90;;;;;;4395160;32;20159;-64
2022/01/28 03:02:39;;;;;;;3.43;1.70;;;3.10;99.90;;;;;;4394374;32;20549;-65
2022/01/28 03:05:37;;;;;;;5.83;1.73;;;3.10;99.90;;;;;;4394512;32;20175;-65
2022/01/28 03:08:09;;;;;;;6.67;2.03;;;3.00;99.90;;;;;;4394468;32;20544;-65
2022/01/28 03:11:02;;;;;;;5.17;2.10;;;3.00;99.90;;;;;;4394556;32;20248;-65
2022/01/28 03:17:02;;;;;;;6.23;2.20;;;2.90;99.90;;;;;;4392443;32;20241;-64
2022/01/28 03:22:38;;;;;;;7.70;2.30;;;2.90;99.90;;;;;;4385487;32;20234;-65
2022/01/28 03:25:06;;;;;;;5.00;2.37;;;2.80;99.90;;;;;;4394852;32;20206;-64
2022/01/28 03:27:55;;;;;;;6.50;2.60;;;2.80;99.90;;;;;;4394223;32;20179;-65
2022/01/28 03:30:23;;;;;;;6.00;2.80;;;2.80;99.90;;;;;;4396706;32;20143;-65
2022/01/28 03:32:51;;;;;;;6.87;3.00;;;2.80;99.90;;;;;;4393991;32;20179;-64
2022/01/28 03:35:29;;;;;;;6.20;3.00;;;2.70;99.90;;;;;;4393493;32;20182;-65
2022/01/28 03:38:01;;;;;;;7.20;3.30;;;2.70;99.90;;;;;;4394554;32;20255;-65
2022/01/28 03:40:38;;;;;;;6.27;3.03;;;2.70;99.90;;;;;;4393941;32;20190;-64
2022/01/28 03:43:06;;;;;;;9.23;3.20;;;2.70;99.90;;;;;;4395278;32;20189;-64
2022/01/28 03:45:34;;;;;;;6.13;3.20;;;2.60;99.90;;;;;;4394085;32;20241;-64
2022/01/28 03:48:05;;;;;;;4.20;3.00;;;2.60;99.90;;;;;;4393155;32;20190;-64
2022/01/28 03:50:34;;;;;;;6.13;3.33;;;2.60;99.90;;;;;;4393515;32;20205;-64
2022/01/28 03:53:03;;;;;;;6.10;3.10;;;2.60;99.90;;;;;;4395308;32;20193;-64
2022/01/28 03:55:30;;;;;;;8.13;3.67;;;2.60;99.90;;;;;;4391134;32;20184;-64
2022/01/28 03:57:57;;;;;;;6.23;3.10;;;2.60;99.90;;;;;;4379223;32;20187;-64
2022/01/28 04:00:28;;;;;;;9.03;3.23;;;2.50;99.90;;;;;;4383010;32;20143;-64
2022/01/28 04:03:08;;;;;;;9.53;3.40;;;2.50;99.90;;;;;;4386631;32;20255;-64
2022/01/28 04:13:52;;;;;;;5.00;2.70;;;2.50;99.90;;;;;;4335229;33;20207;-64
2022/01/28 04:18:48;;;;;;;5.97;3.30;;;2.40;99.90;;;;;;4346960;33;20415;-64
2022/01/28 04:21:15;;;;;;;7.77;3.23;;;2.40;99.90;;;;;;4349037;33;20140;-64
2022/01/28 04:23:42;;;;;;;6.70;2.97;;;2.40;99.90;;;;;;4347900;33;20335;-63
2022/01/28 04:26:16;;;;;;;6.93;3.07;;;2.40;99.90;;;;;;4347512;33;20148;-63
2022/01/28 04:28:46;;;;;;;6.20;2.97;;;2.40;99.90;;;;;;4335540;33;20464;-64
2022/01/28 04:31:14;;;;;;;5.57;2.90;;;2.40;99.90;;;;;;4347947;33;20172;-64
2022/01/28 04:33:41;;;;;;;5.10;2.83;;;2.40;99.90;;;;;;4334924;33;20185;-64
2022/01/28 04:36:12;;;;;;;4.40;2.47;;;2.40;99.90;;;;;;4334838;33;20172;-64
2022/01/28 04:39:06;;;;;;;5.37;2.73;;;2.40;99.90;;;;;;4335371;33;20180;-64
2022/01/28 04:44:10;;;;;;;4.93;2.90;;;2.30;99.90;;;;;;4335423;33;20195;-64
2022/01/28 04:46:45;;;;;;;8.60;3.00;;;2.30;99.90;;;;;;4347619;33;20148;-64
2022/01/28 04:49:21;;;;;;;5.83;2.90;;;2.30;99.90;;;;;;4360307;32;20199;-65
2022/01/28 04:52:15;;;;;;;4.43;2.70;;;2.30;99.90;;;;;;4364956;32;20195;-64
2022/01/28 04:55:15;;;;;;;6.63;3.07;;;2.30;99.90;;;;;;4365676;32;20188;-63
2022/01/28 04:58:18;;;;;;;7.90;2.80;;;2.30;99.90;;;;;;4365563;32;20403;-64
2022/01/28 05:04:06;;;;;;;6.07;2.90;;;2.40;99.90;;;;;;4349536;33;20171;-64
2022/01/28 05:28:17;;;;;;;8.27;3.30;;;2.40;99.90;;;;;;4319743;33;20658;-64
2022/01/28 05:30:45;;;;;;;6.20;3.30;;;2.50;99.90;;;;;;4332011;33;20188;-64
2022/01/28 05:33:12;;;;;;;6.13;3.30;;;2.50;99.90;;;;;;4319099;33;20392;-64
2022/01/28 05:35:40;;;;;;;6.67;3.87;;;2.50;99.90;;;;;;4320991;33;20168;-64
2022/01/28 05:38:07;;;;;;;6.57;3.70;;;2.50;99.90;;;;;;4331581;33;20145;-64
2022/01/28 05:40:35;;;;;;;7.30;4.10;;;2.50;99.90;;;;;;4312387;33;20204;-64
2022/01/28 05:43:02;;;;;;;9.13;4.20;;;2.50;99.90;;;;;;4304314;33;20231;-64
2022/01/28 05:45:32;;;;;;;5.97;3.40;;;2.50;99.90;;;;;;4304430;33;20191;-64
2022/01/28 05:48:09;;;;;;;6.87;3.60;;;2.60;99.90;;;;;;4304885;33;20220;-64
2022/01/28 05:50:38;;;;;;;10.23;3.77;;;2.70;99.90;;;;;;4304531;33;20222;-64
2022/01/28 05:53:11;;;;;;;4.77;3.57;;;2.70;99.90;;;;;;4319842;32;20191;-64
2022/01/28 05:55:39;;;;;;;7.50;4.10;;;2.70;99.90;;;;;;4364417;32;20179;-64
2022/01/28 05:58:06;;;;;;;6.53;3.53;;;2.70;99.90;;;;;;4378389;32;20190;-64
2022/01/28 06:00:37;;;;;;;6.83;3.60;;;2.80;99.90;;;;;;4364923;32;20192;-64
2022/01/28 06:03:10;;;;;;;6.07;3.63;;;2.80;99.90;;;;;;4364780;32;20515;-64
2022/01/28 06:05:38;;;;;;;8.70;3.80;;;2.80;99.90;;;;;;4364596;32;20183;-64
2022/01/28 06:08:11;;;;;;;9.27;3.50;;;2.80;99.90;;;;;;4364433;32;20575;-64
2022/01/28 06:10:38;;;;;;;5.80;3.57;;;2.80;99.90;;;;;;4364639;32;20171;-64
2022/01/28 06:13:07;;;;;;;8.03;3.70;;;2.90;99.90;;;;;;4351984;32;20218;-64
2022/01/28 06:15:39;;;;;;;8.13;3.57;;;2.90;99.90;;;;;;4364676;32;20211;-64
2022/01/28 06:18:09;;;;;;;7.40;3.30;;;2.90;99.90;;;;;;4364373;32;20202;-64
2022/01/28 06:20:38;;;;;;;7.03;3.57;;;2.90;99.90;;;;;;4364170;32;20171;-64
2022/01/28 06:23:12;;;;;;;8.10;3.67;;;2.90;99.90;;;;;;4364370;32;20194;-64
2022/01/28 06:25:39;;;;;;;5.33;3.77;;;2.90;99.90;;;;;;4363986;32;20191;-64
2022/01/28 06:28:07;;;;;;;7.20;3.43;;;2.90;99.90;;;;;;4364516;32;20195;-64
2022/01/28 06:30:34;;;;;;;6.23;3.60;;;2.90;99.90;;;;;;4378156;32;20164;-65
2022/01/28 06:33:01;;;;;;;7.17;3.77;;;2.90;99.90;;;;;;4368380;32;20168;-64
2022/01/28 06:35:29;;;;;;;6.20;3.40;;;2.90;99.90;;;;;;4376644;32;20180;-64
2022/01/28 06:37:56;;;;;;;9.13;3.97;;;2.90;99.90;;;;;;4376702;32;20175;-64
2022/01/28 06:40:23;;;;;;;6.97;3.70;;;2.90;99.90;;;;;;4376566;32;20193;-64
2022/01/28 06:42:51;;;;;;;5.73;3.50;;;2.90;99.90;;;;;;4375890;32;20173;-64
2022/01/28 06:45:19;;;;;;;6.77;3.43;;;2.90;99.90;;;;;;4377848;32;20190;-64
2022/01/28 06:47:46;;;;;;;6.23;3.60;;;2.90;99.90;;;;;;4377518;32;20384;-64
2022/01/28 06:50:13;;;;;;;6.53;3.20;;;2.90;99.90;;;;;;4376936;32;20529;-64
2022/01/28 06:52:42;;;;;;;8.47;3.30;;;2.90;99.90;;;;;;4376609;32;20560;-64
2022/01/28 06:55:11;;;;;;;5.47;3.03;;;2.90;99.90;;;;;;4377198;32;20447;-64
2022/01/28 06:57:39;;;;;;;7.43;3.17;;;2.90;99.90;;;;;;4375955;32;20165;-64
2022/01/28 07:00:13;;;;;;;7.70;3.30;;;2.90;99.90;;;;;;4376763;32;20486;-64
2022/01/28 07:02:40;;;;;;;5.97;3.00;;;2.90;99.90;;;;;;4376184;32;20179;-64
2022/01/28 07:05:08;;;;;;;5.90;2.93;;;2.90;99.90;;;;;;4379305;32;20231;-65
2022/01/28 07:07:42;;;;;;;8.73;2.80;;;2.90;99.90;;;;;;4384181;32;20209;-64
2022/01/28 07:10:09;;;;;;;7.40;2.90;;;2.90;99.90;;;;;;4395359;32;20465;-64
2022/01/28 07:12:37;;;;;;;12.63;2.73;;;2.90;99.90;;;;;;4380742;32;20167;-64
2022/01/28 07:15:04;;;;;;;7.63;3.07;;;2.90;99.90;;;;;;4380908;32;20238;-64
2022/01/28 07:17:32;;;;;;;7.30;2.70;;;2.90;99.90;;;;;;4395082;32;20188;-64
2022/01/28 07:19:59;;;;;;;7.10;3.20;;;2.90;99.90;;;;;;4395767;32;20170;-64
2022/01/28 07:22:26;;;;;;;4.60;2.60;;;2.90;99.90;;;;;;4381110;32;20248;-64
2022/01/28 07:24:53;;;;;;;7.23;2.70;;;2.90;99.90;;;;;;4381154;32;20513;-64
2022/01/28 07:27:21;;;;;;;5.90;2.40;;;2.90;99.90;;;;;;4395742;32;20412;-64
2022/01/28 07:29:50;;;;;;;6.27;2.63;;;2.90;99.90;;;;;;4381399;32;20172;-64
2022/01/28 07:32:17;;;;;;;6.87;2.53;;;2.90;99.90;;;;;;4397853;32;20196;-64
2022/01/28 07:34:46;;;;;;;6.03;2.47;;;2.90;99.90;;;;;;4410031;32;20459;-64
2022/01/28 07:37:13;;;;;;;7.20;2.47;;;2.90;99.90;;;;;;4396493;32;20364;-64
2022/01/28 07:39:41;;;;;;;4.67;2.60;;;2.90;99.90;;;;;;4410709;32;20436;-64
2022/01/28 07:42:08;;;;;;;4.40;2.90;;;2.90;99.90;;;;;;4409990;32;20159;-64
2022/01/28 07:44:36;;;;;;;5.77;2.50;;;2.90;99.90;;;;;;4409907;32;20166;-64
2022/01/28 07:47:04;;;;;;;5.83;2.40;;;2.90;99.90;;;;;;4395897;32;20547;-64
2022/01/28 07:49:31;;;;;;;5.37;2.70;;;2.90;99.90;;;;;;4395712;32;20201;-64
2022/01/28 07:51:58;;;;;;;4.43;2.60;;;2.90;99.90;;;;;;4395615;32;20181;-64
2022/01/28 07:54:25;;;;;;;6.07;2.50;;;3.00;99.90;;;;;;4409287;32;20548;-65
2022/01/28 07:56:54;;;;;;;4.00;2.63;;;2.90;99.90;;;;;;4395817;32;20198;-64
2022/01/28 07:59:22;;;;;;;3.17;2.20;;;2.90;99.90;;;;;;4409673;32;20189;-64
2022/01/28 08:01:49;;;;;;;4.80;2.53;;;2.90;99.90;;;;;;4394961;32;20215;-64
2022/01/28 08:04:17;;;;;;;5.37;2.83;;;2.90;99.90;;;;;;4394977;32;20171;-65
2022/01/28 08:06:44;;;;;;;5.03;2.80;;;2.90;99.90;;;;;;4395652;32;20205;-64
2022/01/28 08:09:12;;;;;;;4.93;2.60;;;2.90;99.90;;;;;;4396541;32;20186;-66
2022/01/28 08:11:39;;;;;;;3.83;2.70;;;2.90;99.90;;;;;;4395562;32;20174;-64
2022/01/28 08:14:07;;;;;;;4.50;2.63;;;2.90;99.90;;;;;;4408651;32;20127;-64
2022/01/28 08:16:35;;;;;;;5.53;2.93;;;2.80;99.90;;;;;;4395439;32;20175;-65
2022/01/28 08:19:02;;;;;;;4.20;2.47;;;2.80;99.90;;;;;;4395899;32;20171;-66
2022/01/28 08:21:30;;;;;;;3.50;2.50;;;2.80;99.90;;;;;;4395315;32;20310;-64
2022/01/28 08:23:57;;;;;;;4.93;2.60;;;2.80;99.90;;;;;;4391945;32;20192;-65
2022/01/28 08:26:25;;;;;;;5.77;2.80;;;2.80;99.90;;;;;;4380352;32;20175;-64
2022/01/28 08:28:56;;;;;;;4.43;1.83;;;2.80;99.90;;;;;;4394114;32;20179;-64
2022/01/28 08:31:26;;;;;;;2.73;1.87;;;2.80;99.90;;;;;;4380458;32;20175;-65
2022/01/28 08:33:57;;;;;;;2.60;2.00;;;2.70;99.90;;;;;;4381006;32;20569;-65
2022/01/28 08:36:24;;;;;;;4.40;2.20;;;2.70;99.90;;;;;;4364849;32;20203;-65
2022/01/28 08:38:54;;;;;;;2.53;1.93;;;2.80;99.90;;;;;;4365640;32;20215;-64
2022/01/28 08:41:23;;;;;;;2.67;1.90;;;2.70;99.90;;;;;;4365666;32;20201;-64
2022/01/28 08:43:53;;;;;;;2.27;1.80;;;2.70;99.90;;;;;;4365976;32;20213;-64
2022/01/28 08:46:24;;;;;;;4.80;1.93;;;2.70;99.90;;;;;;4364703;32;20188;-65
2022/01/28 08:48:52;;;;;;;1.67;1.50;;;2.70;99.90;;;;;;4365347;32;20202;-65
2022/01/28 08:51:20;;;;;;;3.37;1.70;;;2.70;99.90;;;;;;4364960;32;20413;-65
2022/01/28 08:53:53;;;;;;;2.60;1.70;;;2.70;99.90;;;;;;4378558;32;20390;-65
2022/01/28 08:56:26;;;;;;;2.67;1.50;;;2.70;99.90;;;;;;4365130;32;20222;-65
2022/01/28 08:58:54;;;;;;;4.30;1.93;;;2.70;99.90;;;;;;4365033;32;20552;-65
2022/01/28 09:01:50;;;;;;;2.00;1.70;;;2.70;99.90;;;;;;4364871;32;20160;-65
2022/01/28 09:04:26;;;;;;;2.60;1.60;;;2.70;99.90;;;;;;4346401;33;20176;-64
2022/01/28 09:06:56;;;;;;;2.17;1.73;;;2.70;99.90;;;;;;4346163;33;20391;-64
2022/01/28 09:09:28;;;;;;;2.57;1.93;;;2.70;99.90;;;;;;4346867;33;20156;-65
2022/01/28 09:14:26;;;;;;;2.00;1.50;;;2.70;99.90;;;;;;4346870;33;20198;-64
2022/01/28 09:16:53;;;;;;;1.50;1.40;;;2.70;99.90;;;;;;4333631;33;20181;-65
2022/01/28 09:19:20;;;;;;;1.90;1.70;;;2.70;99.90;;;;;;4346943;33;20473;-65
2022/01/28 09:21:47;;;;;;;2.40;1.60;;;2.70;99.90;;;;;;4334677;33;20176;-64
2022/01/28 09:24:14;;;;;;;1.77;1.57;;;2.70;99.90;;;;;;4334482;33;20235;-64
2022/01/28 09:26:42;;;;;;;2.00;1.67;;;2.70;99.90;;;;;;4332941;33;20181;-64
2022/01/28 09:29:09;;;;;;;2.00;1.50;;;2.70;99.90;;;;;;4346658;33;20148;-64
2022/01/28 09:31:36;;;;;;;1.97;1.63;;;2.70;99.90;;;;;;4346224;33;20168;-64
2022/01/28 09:34:04;;;;;;;3.40;1.60;;;2.70;99.90;;;;;;4345513;33;20218;-64
2022/01/28 09:36:31;;;;;;;1.80;1.60;;;2.70;99.90;;;;;;4346937;33;20436;-65
2022/01/28 09:38:58;;;;;;;1.70;1.40;;;2.70;99.90;;;;;;4345806;33;20181;-64
2022/01/28 09:41:25;;;;;;;3.40;1.90;;;2.70;99.90;;;;;;4364360;32;20229;-64
2022/01/28 09:43:52;;;;;;;1.83;1.57;;;2.70;99.90;;;;;;4364031;32;20539;-65
2022/01/28 09:46:21;;;;;;;3.80;2.57;;;2.70;99.90;;;;;;4364292;32;20206;-65
2022/01/28 09:48:49;;;;;;;2.10;1.70;;;2.70;99.90;;;;;;4363897;32;20190;-64
2022/01/28 09:51:16;;;;;;;2.63;1.70;;;2.70;99.90;;;;;;4364450;32;20229;-64
2022/01/28 09:53:43;;;;;;;3.57;1.90;;;2.70;99.90;;;;;;4364621;32;20167;-63
2022/01/28 09:56:10;;;;;;;3.23;1.90;;;2.60;99.90;;;;;;4363604;32;20172;-64
2022/01/28 09:58:37;;;;;;;2.70;1.93;;;2.60;99.90;;;;;;4364326;32;20175;-64
2022/01/28 10:01:05;;;;;;;2.30;2.03;;;2.60;99.90;;;;;;4364446;32;20172;-64
2022/01/28 10:03:36;;;;;;;2.57;1.80;;;2.60;99.90;;;;;;4363936;32;20179;-64
2022/01/28 10:06:03;;;;;;;2.40;1.80;;;2.60;99.90;;;;;;4364859;32;20175;-65
2022/01/28 10:08:32;;;;;;;3.27;2.00;;;2.70;99.90;;;;;;4364069;32;20233;-65
2022/01/28 10:11:03;;;;;;;2.43;1.80;;;2.60;99.90;;;;;;4377810;32;20144;-66
2022/01/28 10:13:44;;;;;;;2.40;1.73;;;2.60;99.90;;;;;;4364320;32;20424;-66
2022/01/28 10:16:16;;;;;;;2.97;1.90;;;2.60;99.90;;;;;;4364308;32;20287;-65
2022/01/28 10:18:47;;;;;;;1.97;1.77;;;2.60;99.90;;;;;;4363725;32;20197;-65
2022/01/28 10:21:36;;;;;;;2.40;1.70;;;2.60;99.90;;;;;;4363648;32;20191;-65
2022/01/28 10:24:13;;;;;;;1.80;1.70;;;2.70;99.90;;;;;;4364034;32;20234;-64
2022/01/28 10:26:44;;;;;;;4.37;2.10;;;2.70;99.90;;;;;;4363624;32;20549;-64
2022/01/28 10:29:33;;;;;;;4.40;1.80;;;2.70;99.90;;;;;;4364012;32;20202;-65
2022/01/28 10:32:06;;;;;;;2.37;1.97;;;2.70;99.90;;;;;;4365823;32;20551;-65
2022/01/28 10:34:40;;;;;;;3.13;1.93;;;2.80;99.90;;;;;;4378916;32;20171;-66
2022/01/28 10:37:07;;;;;;;2.37;1.57;;;2.80;99.90;;;;;;4379415;32;20183;-65
2022/01/28 10:39:43;;;;;;;2.23;1.87;;;2.80;99.90;;;;;;4395793;32;20140;-65
2022/01/28 10:42:12;;;;;;;2.43;1.60;;;2.80;99.90;;;;;;4395911;32;20139;-64
2022/01/28 10:45:14;;;;;;;3.10;2.00;;;2.80;99.90;;;;;;4382215;32;20224;-65
2022/01/28 10:47:53;;;;;;;3.67;1.90;;;2.90;99.90;;;;;;4382239;32;20512;-66
2022/01/28 10:50:36;;;;;;;3.17;1.80;;;2.90;99.90;;;;;;4395812;32;20143;-65
2022/01/28 10:53:07;;;;;;;3.90;1.90;;;2.90;99.90;;;;;;4381423;32;20193;-64
2022/01/28 10:55:46;;;;;;;1.87;1.50;;;3.00;99.90;;;;;;4381272;32;20250;-65
2022/01/28 10:58:18;;;;;;;2.73;1.43;;;3.10;99.90;;;;;;4395911;32;20165;-64
2022/01/28 11:00:58;;;;;;;2.10;1.47;;;3.10;99.90;;;;;;4395641;32;20563;-65
2022/01/28 11:03:27;;;;;;;2.20;1.40;;;3.10;99.90;;;;;;4381809;32;20253;-65
2022/01/28 11:06:00;;;;;;;3.00;1.60;;;3.10;99.90;;;;;;4395842;32;20484;-65
2022/01/28 11:08:31;;;;;;;2.43;1.77;;;3.10;99.90;;;;;;4396273;32;20141;-65
2022/01/28 11:11:00;;;;;;;3.27;1.90;;;3.10;99.90;;;;;;4395641;32;20403;-66
2022/01/28 11:13:28;;;;;;;1.83;1.40;;;3.10;99.90;;;;;;4380929;32;20407;-65
2022/01/28 11:15:57;;;;;;;2.50;1.50;;;3.10;99.90;;;;;;4395173;32;20599;-65
2022/01/28 11:18:26;;;;;;;2.60;1.70;;;3.00;99.90;;;;;;4380710;32;20175;-65
2022/01/28 11:21:03;;;;;;;2.43;1.60;;;3.10;99.90;;;;;;4381107;32;20160;-65
2022/01/28 11:23:49;;;;;;;3.93;1.93;;;3.10;99.90;;;;;;4380843;32;20210;-65
2022/01/28 11:26:26;;;;;;;3.40;1.93;;;3.10;99.90;;;;;;4381919;32;20171;-66
2022/01/28 11:29:02;;;;;;;3.37;1.60;;;3.10;99.90;;;;;;4381357;32;20532;-66
2022/01/28 11:31:45;;;;;;;2.50;1.80;;;3.10;99.90;;;;;;4381001;32;20179;-66
2022/01/28 11:34:25;;;;;;;3.43;1.63;;;3.20;99.90;;;;;;4380827;32;20230;-66
2022/01/28 11:36:58;;;;;;;2.43;1.50;;;3.20;99.90;;;;;;4382304;32;20205;-65
2022/01/28 11:39:31;;;;;;;1.70;1.40;;;3.20;99.90;;;;;;4395149;32;20176;-65
2022/01/28 11:42:11;;;;;;;3.40;1.80;;;3.20;99.90;;;;;;4381462;32;20175;-65
2022/01/28 11:44:49;;;;;;;3.60;1.70;;;3.30;99.90;;;;;;4381139;32;20175;-65
2022/01/28 11:47:58;;;;;;;2.50;1.60;;;3.20;99.90;;;;;;4381173;32;20505;-66
2022/01/28 11:50:29;;;;;;;2.73;1.70;;;3.20;99.90;;;;;;4362637;32;20188;-65
2022/01/28 11:53:01;;;;;;;2.77;1.60;;;3.30;99.90;;;;;;4363186;32;20172;-65
2022/01/28 11:55:31;;;;;;;3.77;1.67;;;3.30;99.90;;;;;;4363027;32;20176;-65
2022/01/28 11:58:04;;;;;;;2.80;1.63;;;3.30;99.90;;;;;;4363725;32;20250;-65
2022/01/28 12:00:41;;;;;;;2.93;1.80;;;3.30;99.90;;;;;;4350473;33;20222;-65
2022/01/28 12:03:25;;;;;;;2.67;1.70;;;3.50;99.90;;;;;;4362583;32;20286;-65
2022/01/28 12:05:56;;;;;;;2.57;1.70;;;3.40;99.90;;;;;;4350398;32;20171;-64
2022/01/28 12:08:29;;;;;;;1.80;1.60;;;3.40;99.90;;;;;;4350600;33;20233;-64
2022/01/28 12:10:57;;;;;;;3.90;1.90;;;3.30;99.90;;;;;;4349759;33;20211;-64
2022/01/28 12:14:05;;;;;;;3.47;2.00;;;3.30;99.90;;;;;;4350366;33;20331;-65
2022/01/28 12:16:56;;;;;;;4.70;2.07;;;3.30;99.90;;;;;;4349714;33;20227;-65
2022/01/28 12:19:31;;;;;;;3.40;2.13;;;3.30;99.90;;;;;;4349764;33;20172;-65
2022/01/28 12:22:10;;;;;;;5.13;2.00;;;3.30;99.90;;;;;;4350505;33;20209;-64
2022/01/28 12:24:43;;;;;;;3.97;2.00;;;3.20;99.90;;;;;;4350293;33;20167;-64
2022/01/28 12:27:19;;;;;;;3.00;1.93;;;3.20;99.90;;;;;;4378962;32;20185;-65
2022/01/28 12:29:57;;;;;;;2.87;1.73;;;3.20;99.90;;;;;;4381413;32;20614;-65
2022/01/28 12:32:38;;;;;;;4.93;2.20;;;3.20;99.90;;;;;;4380651;32;20266;-65
2022/01/28 12:35:18;;;;;;;3.67;1.70;;;3.20;99.90;;;;;;4380687;32;20170;-65
2022/01/28 12:38:22;;;;;;;2.80;1.70;;;3.20;99.90;;;;;;4380565;32;20225;-64
2022/01/28 12:40:53;;;;;;;5.30;1.60;;;3.20;99.90;;;;;;4380646;32;20166;-65
2022/01/28 12:43:23;;;;;;;3.17;1.63;;;3.20;99.90;;;;;;4394627;32;20160;-64
2022/01/28 12:46:15;;;;;;;4.20;1.63;;;3.30;99.90;;;;;;4381148;32;20429;-65
2022/01/28 12:49:22;;;;;;;1.43;1.30;;;3.30;99.90;;;;;;4347920;32;20144;-64
2022/01/28 12:52:10;;;;;;;3.20;1.60;;;3.20;99.90;;;;;;4344653;32;20197;-65
2022/01/28 12:54:48;;;;;;;3.13;1.90;;;3.20;99.90;;;;;;4380865;32;20289;-65
2022/01/28 12:57:29;;;;;;;3.87;1.50;;;3.20;99.90;;;;;;4380155;32;20160;-64
2022/01/28 13:00:07;;;;;;;2.87;1.70;;;3.30;99.90;;;;;;4380457;32;20207;-65
2022/01/28 13:02:59;;;;;;;2.50;1.50;;;3.30;99.90;;;;;;4379127;32;20163;-65
2022/01/28 13:05:37;;;;;;;2.20;1.40;;;3.30;99.90;;;;;;4379607;32;20198;-65
2022/01/28 13:10:50;;;;;;;2.33;1.40;;;3.40;99.90;;;;;;4379843;32;20525;-65
2022/01/28 13:13:31;;;;;;;2.07;1.67;;;3.40;99.90;;;;;;4378500;32;20176;-65
2022/01/28 13:16:00;;;;;;;2.60;1.50;;;3.40;99.90;;;;;;4379499;32;20179;-65
2022/01/28 13:18:28;;;;;;;2.70;1.60;;;3.40;99.90;;;;;;4380468;32;20191;-66
2022/01/28 13:21:27;;;;;;;2.33;1.40;;;3.40;99.90;;;;;;4380325;32;20164;-65
2022/01/28 13:24:22;;;;;;;2.67;1.30;;;3.40;99.90;;;;;;4378364;32;20221;-67
2022/01/28 13:26:59;;;;;;;2.90;1.40;;;3.40;99.90;;;;;;4393705;32;20185;-65
2022/01/28 13:29:39;;;;;;;2.83;1.30;;;3.50;99.90;;;;;;4380130;32;20229;-65
2022/01/28 13:32:12;;;;;;;2.80;1.17;;;3.50;99.90;;;;;;4379911;32;20272;-65
2022/01/28 13:34:48;;;;;;;2.27;1.30;;;3.50;99.90;;;;;;4379840;32;20171;-65
2022/01/28 13:37:41;;;;;;;1.43;1.10;;;3.50;99.90;;;;;;4379810;32;20175;-65
2022/01/28 13:40:29;;;;;;;2.77;1.23;;;3.40;99.90;;;;;;4379395;32;20227;-65
2022/01/28 13:43:29;;;;;;;2.13;1.30;;;3.40;99.90;;;;;;4379885;32;20202;-65
2022/01/28 13:46:11;;;;;;;2.53;1.23;;;3.40;99.90;;;;;;4379594;32;20251;-65
2022/01/28 13:48:39;;;;;;;2.90;1.40;;;3.40;99.90;;;;;;4393662;32;20211;-65
2022/01/28 13:51:13;;;;;;;1.77;1.10;;;3.50;99.90;;;;;;4379387;32;20187;-65
2022/01/28 13:56:41;;;;;;;2.57;1.30;;;3.50;99.90;;;;;;4380531;32;20407;-65
2022/01/28 13:59:24;;;;;;;1.23;1.13;;;3.50;99.90;;;;;;4379499;32;20252;-65
2022/01/28 14:01:56;;;;;;;1.90;1.30;;;3.50;99.90;;;;;;4393534;32;20170;-65
2022/01/28 14:04:40;;;;;;;3.53;1.40;;;3.40;99.90;;;;;;4379776;32;20178;-65
2022/01/28 14:07:30;;;;;;;2.27;1.23;;;3.40;99.90;;;;;;4380252;32;20230;-64
2022/01/28 14:10:31;;;;;;;2.47;1.47;;;3.50;99.90;;;;;;4379703;32;20202;-65
2022/01/28 14:13:23;;;;;;;2.17;1.40;;;3.40;99.90;;;;;;4379547;32;20414;-65
2022/01/28 14:16:13;;;;;;;2.00;1.30;;;3.40;99.90;;;;;;4379879;32;20195;-65
2022/01/28 14:18:55;;;;;;;3.00;1.70;;;3.30;99.90;;;;;;4380060;32;20509;-65
2022/01/28 14:21:26;;;;;;;2.37;1.73;;;3.30;99.90;;;;;;4379505;32;20553;-66
2022/01/28 14:24:03;;;;;;;3.73;1.70;;;3.20;99.90;;;;;;4380120;32;20171;-65
2022/01/28 14:27:24;;;;;;;3.70;1.80;;;3.20;99.90;;;;;;4379897;32;20442;-66
2022/01/28 14:30:16;;;;;;;2.67;1.63;;;3.20;99.90;;;;;;4379491;32;20462;-66
2022/01/28 14:32:46;;;;;;;2.93;1.40;;;3.10;99.90;;;;;;4393875;32;20160;-65
2022/01/28 14:35:30;;;;;;;2.77;1.57;;;3.10;99.90;;;;;;4393196;32;20167;-65
2022/01/28 14:38:22;;;;;;;2.00;1.50;;;3.10;99.90;;;;;;4379581;32;20591;-66
2022/01/28 14:40:56;;;;;;;2.37;1.47;;;3.10;99.90;;;;;;4380021;32;20560;-65
2022/01/28 14:43:23;;;;;;;2.87;1.50;;;3.20;99.90;;;;;;4379421;32;20257;-65
2022/01/28 14:45:50;;;;;;;2.87;1.43;;;3.20;99.90;;;;;;4380010;32;20231;-65
2022/01/28 14:48:22;;;;;;;3.33;1.40;;;3.20;99.90;;;;;;4379481;32;20176;-66
2022/01/28 14:50:58;;;;;;;1.97;1.10;;;3.20;99.90;;;;;;4392352;32;20271;-66
2022/01/28 14:53:32;;;;;;;1.43;1.17;;;3.20;99.90;;;;;;4379495;32;20171;-65
2022/01/28 14:56:06;;;;;;;2.10;1.20;;;3.20;99.90;;;;;;4379394;32;20407;-66
2022/01/28 14:58:33;;;;;;;2.07;1.20;;;3.10;99.90;;;;;;4379707;32;20225;-65
2022/01/28 15:01:01;;;;;;;1.10;1.00;;;3.20;99.90;;;;;;4379218;32;20518;-65
2022/01/28 15:03:42;;;;;;;2.33;1.43;;;3.20;99.90;;;;;;4379553;32;20179;-65
2022/01/28 15:06:33;;;;;;;1.43;1.07;;;3.20;99.90;;;;;;4379460;32;20228;-65
2022/01/28 15:09:03;;;;;;;2.13;1.20;;;3.20;99.90;;;;;;4379788;32;20167;-66
2022/01/28 15:14:26;;;;;;;3.00;1.10;;;3.20;99.90;;;;;;4379765;32;20191;-66